Avon, CO (81620)

12:50 AM MDT on August 20, 2014 (GMT -0600)
WildRidge - Neighborhood | Change Station
CLOSE
Current Station
Personal Weather Station
Location: Avon, CO
Elevation: 8156 ft
Nearby Weather Stations
Active Advisory: Special Statement Active Notice: Public Information Statement

Elev 8156 ft 39.66 °N, 106.55 °W | Updated 4 minutes ago

Overcast
Overcast
52.4 °F
Feels Like 52.4 °F
N
0.0
Wind Variable Wind from SSE
Gusts 3.0 mph

Today
High -- | Low -- °F
--% Chance of Precip.
Yesterday
High -- | Low -- °F
Precip. -- in
6:23 AM 7:55 PM
Waning Crescent, 24% visible
Pressure 30.11 in
Visibility 10.0 miles
Clouds Scattered Clouds 8500 ft
Overcast 9500 ft
Dew Point 50 °F
Humidity 91%
Rainfall 0.00 in
Snow Depth Not available.
UV 0 out of 12
Pollen 9.60 out of 12
Air Quality Not available.
Flu Activity Not available.
METAR KEGE 200635Z AUTO 00000KT 10SM SCT085 OVC095 14/13 A3011 RMK AO1

More Conditions Fewer Conditions

Pressure 30.11 in
Visibility 10.0 miles
Clouds Scattered Clouds 8500 ft
Overcast 9500 ft
Dew Point 50 °F
Humidity 91%
Rainfall 0.00 in
Snow Depth Not available.
UV 0 out of 12
Pollen 9.60 out of 12
Air Quality Not available.
Flu Activity Not available.
METAR KEGE 200635Z AUTO 00000KT 10SM SCT085 OVC095 14/13 A3011 RMK AO1

More Conditions Fewer Conditions

10-Day Weather Forecast

Almanac

Astronomy

Aug. 20, 2014 Rise Set
Actual Time 6:23 AM MDT 7:55 PM MDT
Civil Twilight 5:54 AM MDT 8:23 PM MDT
Nautical Twilight 5:20 AM MDT 8:57 PM MDT
Astronomical Twilight 4:44 AM MDT 9:33 PM MDT
Moon 2:05 AM MDT 4:41 PM MDT
Length of Visible Light 14h 28m
Length of Day
13h 31m
Tomorrow will be 2m 21s shorter.
Waning Crescent, 24% of the Moon is Illuminated
Today
Waning Crescent
Aug 25
New
Sep 2
First Quarter
Sep 8
Full
Sep 15
Last Quarter

Community

WunderPhotos

Upload Photos

1,745,592 photos uploaded!

Nearby

Snow Depth

Station Depth Elevation
Mccoy Park 8 in 9480 ft
Vail Mountain 0 in 10300 ft
Summit Ranch 0 in 9400 ft
Copper Mountain 0 in 10500 ft
Kiln 0 in 9600 ft

Earthquake Activity

City Distance Mag. Time & Date
No recent earthquake activity has been reported nearby.
Minimum magnitude displayed is 2.5.

Coastal Water Temperatures

Place Temperature
No Stations Reporting

Nearby Weather Stations